Time;durP1;ratioP1;P1;durP2;ratioP2;P2;SDS_P1;SDS_P2;PMS_P1;PMS_P2;Temp;Humidity;BMP_temperature;BMP_pressure;BME280_temperature;BME280_humidity;BME280_pressure;Samples;Min_cycle;Max_cycle;Signal;HPM_P1;HPM_P2
2023/01/20 00:01:05;;;;;;;4.93;1.67;;;-0.50;99.90;;;;;;5024088;28;20025;-70
2023/01/20 00:03:30;;;;;;;2.45;1.45;;;-0.70;99.90;;;;;;5024127;28;20140;-70
2023/01/20 00:05:56;;;;;;;6.97;1.63;;;-0.80;99.90;;;;;;5025343;28;20041;-69
2023/01/20 00:08:22;;;;;;;3.53;1.17;;;-0.80;99.90;;;;;;5020015;28;20045;-71
2023/01/20 00:10:48;;;;;;;4.15;0.85;;;-0.70;99.90;;;;;;5031104;28;20393;-69
2023/01/20 00:13:14;;;;;;;3.30;1.00;;;-0.40;99.90;;;;;;5019643;28;20032;-70
2023/01/20 00:15:40;;;;;;;5.65;0.80;;;0.30;99.90;;;;;;5022858;28;20063;-69
2023/01/20 00:18:05;;;;;;;1.48;0.93;;;0.70;99.90;;;;;;5030419;28;20030;-68
2023/01/20 00:20:31;;;;;;;2.80;1.05;;;0.90;99.90;;;;;;5024797;28;20025;-69
2023/01/20 00:22:57;;;;;;;3.05;1.02;;;0.90;99.90;;;;;;5024999;28;20467;-70
2023/01/20 00:25:23;;;;;;;1.73;0.73;;;1.10;99.90;;;;;;5020174;28;20047;-71
2023/01/20 00:27:52;;;;;;;3.33;0.90;;;1.10;99.90;;;;;;5025251;28;20033;-69
2023/01/20 00:30:18;;;;;;;3.25;1.00;;;1.10;99.90;;;;;;5023057;28;20037;-70
2023/01/20 00:32:44;;;;;;;3.63;0.98;;;1.20;99.90;;;;;;5023815;28;20049;-70
2023/01/20 00:35:12;;;;;;;3.13;1.50;;;1.20;99.90;;;;;;5024270;28;20044;-71
2023/01/20 00:37:38;;;;;;;3.05;0.90;;;1.10;99.90;;;;;;5026784;28;20464;-69
2023/01/20 00:40:05;;;;;;;1.30;0.63;;;1.10;99.90;;;;;;5028391;28;20113;-70
2023/01/20 00:42:34;;;;;;;3.40;0.88;;;1.00;99.90;;;;;;5022547;28;20029;-69
2023/01/20 00:45:00;;;;;;;2.55;0.73;;;0.90;99.90;;;;;;5025113;28;20033;-69
2023/01/20 00:47:26;;;;;;;3.83;1.05;;;0.80;99.90;;;;;;5020534;28;20022;-71
2023/01/20 00:49:52;;;;;;;2.63;0.80;;;0.70;99.90;;;;;;5030996;28;20025;-70
2023/01/20 00:52:18;;;;;;;3.85;1.02;;;0.70;99.90;;;;;;5019034;28;20113;-70
2023/01/20 00:54:44;;;;;;;3.85;0.82;;;0.60;99.90;;;;;;5023200;28;20021;-70
2023/01/20 00:57:11;;;;;;;4.25;1.85;;;0.70;99.90;;;;;;5026458;28;20132;-70
2023/01/20 00:59:37;;;;;;;1.02;0.80;;;0.80;99.90;;;;;;5025258;28;20034;-70
2023/01/20 01:02:03;;;;;;;2.53;0.90;;;0.80;99.90;;;;;;5023477;28;20029;-69
2023/01/20 01:04:29;;;;;;;3.65;1.23;;;0.70;99.90;;;;;;5025060;28;20539;-70
2023/01/20 01:06:55;;;;;;;3.55;0.90;;;0.70;99.90;;;;;;5024683;28;20030;-71
2023/01/20 01:09:20;;;;;;;2.58;1.17;;;0.80;99.90;;;;;;5026750;28;20025;-70
2023/01/20 01:11:50;;;;;;;3.65;1.05;;;0.70;99.90;;;;;;5023050;28;20025;-69
2023/01/20 01:14:16;;;;;;;2.65;1.15;;;0.60;99.90;;;;;;5026505;28;20083;-70
2023/01/20 01:16:42;;;;;;;2.65;1.00;;;0.60;99.90;;;;;;5027717;28;20022;-70
2023/01/20 01:19:08;;;;;;;3.92;1.17;;;0.60;99.90;;;;;;5028358;28;20392;-70
2023/01/20 01:21:34;;;;;;;4.85;1.15;;;0.40;99.90;;;;;;5024224;28;20022;-70
2023/01/20 01:24:01;;;;;;;3.83;0.80;;;0.30;99.90;;;;;;5025902;28;20034;-70
2023/01/20 01:26:27;;;;;;;3.50;0.88;;;0.40;99.90;;;;;;5025207;28;20029;-70
2023/01/20 01:28:53;;;;;;;4.68;1.17;;;0.50;99.90;;;;;;5021632;28;20088;-69
2023/01/20 01:31:20;;;;;;;2.30;1.27;;;0.50;99.90;;;;;;5026371;28;20030;-70
2023/01/20 01:33:47;;;;;;;3.90;0.80;;;0.60;99.90;;;;;;5021573;28;20026;-70
2023/01/20 01:36:15;;;;;;;3.70;1.30;;;0.50;99.90;;;;;;5027941;28;20109;-69
2023/01/20 01:38:42;;;;;;;3.72;1.40;;;0.50;99.90;;;;;;5026024;28;20025;-70
2023/01/20 01:41:13;;;;;;;3.05;1.17;;;0.60;99.90;;;;;;5022056;28;20029;-71
2023/01/20 01:44:06;;;;;;;4.63;1.15;;;0.60;99.90;;;;;;5023569;28;20072;-69
2023/01/20 01:46:32;;;;;;;3.38;1.10;;;0.60;99.90;;;;;;5022253;28;20493;-69
2023/01/20 01:49:02;;;;;;;3.60;0.90;;;0.70;99.90;;;;;;5023670;28;20056;-69
2023/01/20 01:51:37;;;;;;;2.05;0.80;;;0.80;99.90;;;;;;5024196;28;20022;-69
2023/01/20 01:54:12;;;;;;;1.63;0.73;;;0.80;99.90;;;;;;5025602;28;20032;-69
2023/01/20 01:56:40;;;;;;;6.50;1.30;;;0.90;99.90;;;;;;5009516;28;20034;-69
2023/01/20 01:59:07;;;;;;;5.00;1.40;;;1.00;99.90;;;;;;5024684;28;20553;-69
2023/01/20 02:01:38;;;;;;;2.63;1.13;;;1.10;99.90;;;;;;5016724;28;20040;-70
2023/01/20 02:04:09;;;;;;;2.13;0.77;;;1.20;99.90;;;;;;5023310;28;20037;-70
2023/01/20 02:06:38;;;;;;;2.28;1.20;;;1.10;99.90;;;;;;5015720;28;20029;-70
2023/01/20 02:09:04;;;;;;;3.78;0.90;;;1.20;99.90;;;;;;5027769;28;20488;-69
2023/01/20 02:11:36;;;;;;;3.55;1.10;;;1.20;99.90;;;;;;5020556;28;20021;-69
2023/01/20 02:14:02;;;;;;;4.05;1.17;;;1.20;99.90;;;;;;5027199;28;20060;-70
2023/01/20 02:16:46;;;;;;;4.03;1.30;;;1.10;99.90;;;;;;5025846;28;20037;-70
2023/01/20 02:19:32;;;;;;;2.25;0.70;;;1.00;99.90;;;;;;5026825;28;20017;-69
2023/01/20 02:22:32;;;;;;;5.07;0.82;;;1.40;99.90;;;;;;5021064;28;20037;-69
2023/01/20 02:25:24;;;;;;;3.10;0.60;;;1.90;99.90;;;;;;5020147;28;20034;-70
2023/01/20 02:28:12;;;;;;;3.38;1.02;;;2.20;99.90;;;;;;5018249;28;20024;-69
2023/01/20 02:31:02;;;;;;;1.52;0.70;;;2.40;99.90;;;;;;5018131;28;20444;-69
2023/01/20 02:34:07;;;;;;;4.25;0.70;;;2.40;99.90;;;;;;5021207;28;20022;-70
2023/01/20 02:36:44;;;;;;;1.95;1.02;;;2.50;99.90;;;;;;5026109;28;20112;-69
2023/01/20 02:39:24;;;;;;;2.80;0.60;;;2.50;99.90;;;;;;5020478;28;20026;-69
2023/01/20 02:42:07;;;;;;;2.95;1.10;;;2.50;99.90;;;;;;5027767;28;20116;-70
2023/01/20 02:45:24;;;;;;;5.45;0.90;;;2.50;99.90;;;;;;5016862;28;20394;-69
2023/01/20 02:48:09;;;;;;;3.95;1.30;;;2.50;99.90;;;;;;4992000;28;20186;-69
2023/01/20 02:51:06;;;;;;;2.72;0.60;;;2.50;99.90;;;;;;5020912;28;20028;-70
2023/01/20 02:53:40;;;;;;;2.05;0.63;;;2.60;99.90;;;;;;5018335;28;20025;-69
2023/01/20 02:56:07;;;;;;;4.00;0.88;;;2.70;99.90;;;;;;5019617;28;20022;-69
2023/01/20 02:59:03;;;;;;;2.70;0.82;;;2.70;99.90;;;;;;5025688;28;20366;-71
2023/01/20 03:01:38;;;;;;;3.78;0.82;;;2.80;99.90;;;;;;5010206;28;20513;-69
2023/01/20 03:04:08;;;;;;;5.68;1.52;;;2.80;99.90;;;;;;5013941;28;20045;-69
2023/01/20 03:06:42;;;;;;;2.15;0.70;;;2.70;99.90;;;;;;5018332;28;20081;-69
2023/01/20 03:09:12;;;;;;;2.50;0.98;;;2.70;99.90;;;;;;5026392;28;20029;-69
2023/01/20 03:11:43;;;;;;;2.05;0.52;;;2.70;99.90;;;;;;5020708;28;20026;-70
2023/01/20 03:14:12;;;;;;;2.60;0.90;;;2.70;99.90;;;;;;5023606;28;20017;-70
2023/01/20 03:16:39;;;;;;;3.13;0.68;;;2.70;99.90;;;;;;5027048;28;20120;-69
2023/01/20 03:19:05;;;;;;;1.70;0.80;;;2.70;99.90;;;;;;5016117;28;20473;-70
2023/01/20 03:21:35;;;;;;;2.30;1.40;;;2.60;99.90;;;;;;5019432;28;20045;-70
2023/01/20 03:24:04;;;;;;;2.38;0.73;;;2.60;99.90;;;;;;5020981;28;20045;-69
2023/01/20 03:26:31;;;;;;;6.38;1.10;;;2.70;99.90;;;;;;5022116;28;20104;-70
2023/01/20 03:28:58;;;;;;;2.75;0.68;;;2.60;99.90;;;;;;5021760;28;20392;-69
2023/01/20 03:31:29;;;;;;;5.22;0.77;;;2.60;99.90;;;;;;5026098;28;20482;-69
2023/01/20 03:33:58;;;;;;;3.33;0.70;;;2.70;99.90;;;;;;5020056;28;20519;-69
2023/01/20 03:36:28;;;;;;;4.50;0.88;;;2.70;99.90;;;;;;5027350;28;20027;-69
2023/01/20 03:38:55;;;;;;;2.63;0.65;;;2.70;99.90;;;;;;5014443;28;20029;-70
2023/01/20 03:41:56;;;;;;;4.85;0.95;;;2.70;99.90;;;;;;5026979;28;20017;-70
2023/01/20 03:44:22;;;;;;;1.10;0.60;;;2.70;99.90;;;;;;5020410;28;20080;-68
2023/01/20 03:47:16;;;;;;;2.15;0.63;;;2.70;99.90;;;;;;5029013;28;20061;-70
2023/01/20 03:50:04;;;;;;;4.22;0.70;;;2.70;99.90;;;;;;5014109;28;20034;-69
2023/01/20 03:52:37;;;;;;;3.83;0.90;;;2.80;99.90;;;;;;5014854;28;20033;-69
2023/01/20 03:55:13;;;;;;;3.20;0.82;;;2.80;99.90;;;;;;5014364;28;20026;-69
2023/01/20 03:57:52;;;;;;;2.05;0.90;;;2.80;99.90;;;;;;5022856;28;20041;-69
2023/01/20 04:00:20;;;;;;;2.72;0.80;;;2.90;99.90;;;;;;5018601;28;20026;-68
2023/01/20 04:02:47;;;;;;;2.63;0.95;;;2.80;99.90;;;;;;5017557;28;20034;-69
2023/01/20 04:05:13;;;;;;;1.95;0.73;;;2.70;99.90;;;;;;5015430;28;20048;-70
2023/01/20 04:07:42;;;;;;;2.75;0.63;;;2.70;99.90;;;;;;5026574;28;20014;-70
2023/01/20 04:10:11;;;;;;;3.17;0.70;;;2.60;99.90;;;;;;5030017;28;20034;-69
2023/01/20 04:12:37;;;;;;;2.45;0.70;;;2.60;99.90;;;;;;5022577;28;20058;-69
2023/01/20 04:15:06;;;;;;;1.33;0.60;;;2.60;99.90;;;;;;5028788;28;20052;-70
2023/01/20 04:17:32;;;;;;;3.15;0.95;;;2.60;99.90;;;;;;5027080;28;20033;-69
2023/01/20 04:20:02;;;;;;;3.95;1.20;;;2.50;99.90;;;;;;5027963;28;20021;-70
2023/01/20 04:22:33;;;;;;;3.10;0.75;;;2.40;99.90;;;;;;5025721;28;20032;-69
2023/01/20 04:25:19;;;;;;;2.17;1.00;;;2.30;99.90;;;;;;5021370;28;20124;-69
2023/01/20 04:27:45;;;;;;;3.35;0.80;;;2.20;99.90;;;;;;5024086;28;20029;-69
2023/01/20 04:30:13;;;;;;;4.40;0.80;;;2.10;99.90;;;;;;5023861;28;20041;-70
2023/01/20 04:32:38;;;;;;;2.17;0.57;;;2.00;99.90;;;;;;5027153;28;20104;-70
2023/01/20 04:35:05;;;;;;;1.08;0.65;;;2.00;99.90;;;;;;5025204;28;20562;-69
2023/01/20 04:37:30;;;;;;;6.13;0.80;;;1.90;99.90;;;;;;5028547;28;20037;-70
2023/01/20 04:40:01;;;;;;;3.38;0.93;;;1.90;99.90;;;;;;5028943;28;20099;-70
2023/01/20 04:42:27;;;;;;;1.58;0.77;;;1.90;99.90;;;;;;5018167;28;20486;-71
2023/01/20 04:44:56;;;;;;;5.55;1.10;;;1.90;99.90;;;;;;5014730;28;20054;-69
2023/01/20 04:47:22;;;;;;;1.52;0.50;;;1.80;99.90;;;;;;5027893;28;20496;-70
2023/01/20 04:49:54;;;;;;;7.05;1.25;;;1.80;99.90;;;;;;5029989;28;20029;-70
2023/01/20 04:52:20;;;;;;;1.40;0.70;;;1.80;99.90;;;;;;5021232;28;20033;-69
2023/01/20 04:54:45;;;;;;;4.65;1.15;;;1.70;99.90;;;;;;5026491;28;20025;-69
2023/01/20 04:57:11;;;;;;;2.42;0.73;;;1.70;99.90;;;;;;5024168;28;20040;-70
2023/01/20 04:59:56;;;;;;;7.32;0.90;;;1.80;99.90;;;;;;4956029;28;20146;-72
2023/01/20 05:02:22;;;;;;;3.85;0.70;;;1.80;99.90;;;;;;4959735;28;20179;-69
2023/01/20 05:04:53;;;;;;;2.15;0.90;;;1.60;99.90;;;;;;4961668;28;20122;-69
2023/01/20 05:07:19;;;;;;;5.93;0.60;;;1.40;99.90;;;;;;4951057;28;20019;-69
2023/01/20 05:09:51;;;;;;;5.75;0.77;;;1.50;99.90;;;;;;4963723;28;20023;-69
2023/01/20 05:12:21;;;;;;;2.78;0.93;;;1.50;99.90;;;;;;4961073;28;20376;-70
2023/01/20 05:14:47;;;;;;;3.17;1.00;;;1.50;99.90;;;;;;4963242;28;20030;-69
2023/01/20 05:17:13;;;;;;;2.40;0.63;;;1.60;99.90;;;;;;4960336;28;20042;-69
2023/01/20 05:19:39;;;;;;;2.10;0.55;;;1.70;99.90;;;;;;4952170;28;20114;-69
2023/01/20 05:22:05;;;;;;;7.75;1.05;;;1.80;99.90;;;;;;4965197;28;20158;-69
2023/01/20 05:24:31;;;;;;;3.30;0.68;;;1.80;99.90;;;;;;4963770;28;20062;-69
2023/01/20 05:26:59;;;;;;;4.85;1.15;;;1.90;99.90;;;;;;4955487;28;20045;-69
2023/01/20 05:29:25;;;;;;;8.25;2.67;;;1.80;99.90;;;;;;4962805;28;20741;-70
2023/01/20 05:31:51;;;;;;;3.92;0.75;;;1.90;99.90;;;;;;4960438;28;20030;-69
2023/01/20 05:34:17;;;;;;;4.68;1.00;;;1.90;99.90;;;;;;4962365;28;20057;-70
2023/01/20 05:36:43;;;;;;;4.78;1.50;;;2.00;99.90;;;;;;4981169;28;20064;-69
2023/01/20 05:39:08;;;;;;;8.43;1.13;;;1.90;99.90;;;;;;5024150;28;20117;-69
2023/01/20 05:41:34;;;;;;;2.85;0.80;;;1.80;99.90;;;;;;5021494;28;20028;-71
2023/01/20 05:44:00;;;;;;;1.77;0.90;;;1.80;99.90;;;;;;5023811;28;20100;-70
2023/01/20 05:46:26;;;;;;;2.47;0.68;;;1.90;99.90;;;;;;5027030;28;20037;-69
2023/01/20 05:48:52;;;;;;;2.90;0.90;;;1.90;99.90;;;;;;5023000;28;20539;-69
2023/01/20 05:51:18;;;;;;;2.80;0.68;;;1.90;99.90;;;;;;5024685;28;20033;-69
2023/01/20 05:53:43;;;;;;;3.40;0.68;;;2.10;99.90;;;;;;5022705;28;20067;-70
2023/01/20 05:56:12;;;;;;;2.92;1.05;;;2.10;99.90;;;;;;5020051;28;20030;-69
2023/01/20 05:58:38;;;;;;;3.03;0.70;;;2.30;99.90;;;;;;5023923;28;20697;-70
2023/01/20 06:01:10;;;;;;;2.53;0.50;;;2.20;99.90;;;;;;5028817;28;20121;-70
2023/01/20 06:03:37;;;;;;;3.00;0.57;;;2.30;99.90;;;;;;5019712;28;20063;-69
2023/01/20 06:06:05;;;;;;;3.03;0.75;;;2.30;99.90;;;;;;5024141;28;20390;-69
2023/01/20 06:08:31;;;;;;;3.00;0.70;;;2.20;99.90;;;;;;5023144;28;20064;-70
2023/01/20 06:10:57;;;;;;;2.65;0.80;;;2.20;99.90;;;;;;5026694;28;20085;-69
2023/01/20 06:13:23;;;;;;;4.68;0.80;;;2.10;99.90;;;;;;5021781;28;20468;-70
2023/01/20 06:15:53;;;;;;;4.72;0.60;;;2.20;99.90;;;;;;5020748;28;20026;-70
2023/01/20 06:18:20;;;;;;;4.57;1.02;;;2.20;99.90;;;;;;5024965;28;20056;-69
2023/01/20 06:20:46;;;;;;;2.00;0.60;;;2.30;99.90;;;;;;5024880;28;20033;-69
2023/01/20 06:23:12;;;;;;;5.55;0.65;;;2.30;99.90;;;;;;5020691;28;20045;-69
2023/01/20 06:25:38;;;;;;;1.80;0.52;;;2.20;99.90;;;;;;5023859;28;20033;-69
2023/01/20 06:28:04;;;;;;;5.53;0.75;;;2.20;99.90;;;;;;5019817;28;20017;-69
2023/01/20 06:30:30;;;;;;;4.75;0.93;;;2.10;99.90;;;;;;5018039;28;20470;-70
2023/01/20 06:32:56;;;;;;;4.70;0.60;;;2.00;99.90;;;;;;5022251;28;20017;-70
2023/01/20 06:35:23;;;;;;;1.65;0.88;;;2.00;99.90;;;;;;5025366;28;20088;-69
2023/01/20 06:37:49;;;;;;;5.05;1.15;;;2.00;99.90;;;;;;5028397;28;20036;-70
2023/01/20 06:40:15;;;;;;;3.70;0.80;;;1.90;99.90;;;;;;5021163;28;20109;-69
2023/01/20 06:42:41;;;;;;;1.83;0.50;;;1.90;99.90;;;;;;5020579;28;20024;-70
2023/01/20 06:45:08;;;;;;;3.25;0.68;;;1.90;99.90;;;;;;5027743;28;20046;-70
2023/01/20 06:47:34;;;;;;;4.93;1.10;;;1.70;99.90;;;;;;5019319;28;20376;-70
2023/01/20 06:50:00;;;;;;;6.57;0.93;;;1.60;99.90;;;;;;5029629;28;20545;-69
2023/01/20 06:52:26;;;;;;;8.70;0.85;;;1.60;99.90;;;;;;5020024;28;20030;-69
2023/01/20 06:54:57;;;;;;;4.53;1.10;;;1.60;99.90;;;;;;5030746;28;20061;-70
2023/01/20 06:57:23;;;;;;;2.55;0.82;;;1.40;99.90;;;;;;5028822;28;20091;-70
2023/01/20 06:59:49;;;;;;;3.88;1.10;;;1.30;99.90;;;;;;5030047;28;20025;-69
2023/01/20 07:02:21;;;;;;;4.68;1.02;;;1.20;99.90;;;;;;5029285;28;20025;-70
2023/01/20 07:04:47;;;;;;;10.10;1.25;;;1.20;99.90;;;;;;5027826;28;20029;-70
2023/01/20 07:07:13;;;;;;;3.13;0.77;;;1.10;99.90;;;;;;5029757;28;20531;-70
2023/01/20 07:09:38;;;;;;;5.35;1.30;;;1.10;99.90;;;;;;5029400;28;20021;-69
2023/01/20 07:12:04;;;;;;;2.05;0.90;;;1.10;99.90;;;;;;5029164;28;20026;-69
2023/01/20 07:14:30;;;;;;;3.35;1.00;;;1.00;99.90;;;;;;5024557;28;20034;-70
2023/01/20 07:16:56;;;;;;;3.92;1.10;;;1.10;99.90;;;;;;5029127;28;20041;-69
2023/01/20 07:19:22;;;;;;;3.17;0.90;;;1.00;99.90;;;;;;5027475;28;20079;-70
2023/01/20 07:21:48;;;;;;;5.68;1.27;;;1.00;99.90;;;;;;5021955;28;20076;-69
2023/01/20 07:24:14;;;;;;;2.80;1.20;;;1.00;99.90;;;;;;5026572;28;20531;-69
2023/01/20 07:26:39;;;;;;;5.75;1.23;;;1.00;99.90;;;;;;5026107;28;20057;-70
2023/01/20 07:29:05;;;;;;;6.10;1.50;;;1.10;99.90;;;;;;5026289;28;20485;-70
2023/01/20 07:31:33;;;;;;;4.97;1.10;;;1.10;99.90;;;;;;5024972;28;20025;-69
2023/01/20 07:33:59;;;;;;;5.93;0.73;;;1.10;99.90;;;;;;5030580;28;20026;-70
2023/01/20 07:36:25;;;;;;;8.10;0.88;;;1.20;99.90;;;;;;5027054;28;20029;-69
2023/01/20 07:38:54;;;;;;;8.68;0.93;;;1.20;99.90;;;;;;5028586;28;20499;-70
2023/01/20 07:41:21;;;;;;;4.43;0.60;;;1.10;99.90;;;;;;5026569;28;20029;-69
2023/01/20 07:43:49;;;;;;;5.85;1.27;;;1.10;99.90;;;;;;5021328;28;20165;-70
2023/01/20 07:46:15;;;;;;;9.32;1.42;;;1.00;99.90;;;;;;5026632;28;20120;-70
2023/01/20 07:48:41;;;;;;;5.32;1.42;;;1.10;99.90;;;;;;5025323;28;20112;-70
2023/01/20 07:51:09;;;;;;;8.23;1.42;;;1.10;99.90;;;;;;5028262;28;20037;-69
2023/01/20 07:53:37;;;;;;;6.00;1.20;;;1.10;99.90;;;;;;5022388;28;20036;-70
2023/01/20 07:56:06;;;;;;;4.65;1.10;;;1.10;99.90;;;;;;5027659;28;20030;-70
2023/01/20 07:58:32;;;;;;;5.68;1.08;;;1.10;99.90;;;;;;5024291;28;20026;-70
2023/01/20 08:01:08;;;;;;;5.93;1.15;;;1.10;99.90;;;;;;5027798;28;20032;-69
2023/01/20 08:03:35;;;;;;;3.78;0.77;;;1.10;99.90;;;;;;5027380;28;20018;-69
2023/01/20 08:06:09;;;;;;;5.90;1.08;;;1.10;99.90;;;;;;5031295;28;20037;-70
2023/01/20 08:08:35;;;;;;;4.28;1.00;;;1.20;99.90;;;;;;5029452;28;20029;-70
2023/01/20 08:11:02;;;;;;;2.63;0.95;;;1.20;99.90;;;;;;5029942;28;20036;-69
2023/01/20 08:13:28;;;;;;;3.50;1.00;;;1.30;99.90;;;;;;5027610;28;20567;-69
2023/01/20 08:15:54;;;;;;;4.22;1.63;;;1.20;99.90;;;;;;5030808;28;20029;-70
2023/01/20 08:18:20;;;;;;;5.88;2.13;;;1.20;99.90;;;;;;5027703;28;20120;-70
2023/01/20 08:20:46;;;;;;;12.02;4.88;;;1.30;99.90;;;;;;5026641;28;20124;-69
2023/01/20 08:23:11;;;;;;;5.07;2.05;;;1.40;99.90;;;;;;5020444;28;20100;-70
2023/01/20 08:25:37;;;;;;;3.78;0.88;;;1.50;99.90;;;;;;5020832;28;20099;-71
2023/01/20 08:28:03;;;;;;;2.53;0.70;;;1.50;99.90;;;;;;5022541;28;20526;-68
2023/01/20 08:30:29;;;;;;;6.57;1.05;;;1.60;99.90;;;;;;5017714;28;20034;-69
2023/01/20 08:32:55;;;;;;;3.70;1.08;;;1.60;99.90;;;;;;5027162;28;20033;-71
2023/01/20 08:35:21;;;;;;;4.10;1.20;;;1.60;99.90;;;;;;5026158;28;20034;-70
2023/01/20 08:37:46;;;;;;;7.13;1.23;;;1.70;99.90;;;;;;5027779;28;20025;-69
2023/01/20 08:40:12;;;;;;;2.05;1.23;;;1.70;99.90;;;;;;5029414;28;20599;-69
2023/01/20 08:42:38;;;;;;;7.43;1.48;;;1.70;99.90;;;;;;5026693;28;20424;-67
2023/01/20 08:45:05;;;;;;;4.00;1.13;;;1.80;99.90;;;;;;5024491;28;20038;-69
2023/01/20 08:47:35;;;;;;;3.60;1.30;;;1.80;99.90;;;;;;5022437;28;20404;-70
2023/01/20 08:50:00;;;;;;;2.65;1.00;;;1.80;99.90;;;;;;5023614;28;20029;-67
2023/01/20 08:52:27;;;;;;;3.13;0.90;;;1.80;99.90;;;;;;5023180;28;20032;-69
2023/01/20 08:54:53;;;;;;;8.88;1.48;;;1.70;99.90;;;;;;5027586;28;20045;-70
2023/01/20 08:57:18;;;;;;;5.18;0.90;;;1.80;99.90;;;;;;5021621;28;20429;-69
2023/01/20 08:59:46;;;;;;;5.22;1.20;;;1.80;99.90;;;;;;5018282;28;20496;-70
2023/01/20 09:02:12;;;;;;;3.80;1.15;;;1.80;99.90;;;;;;5026462;28;20500;-69
2023/01/20 09:04:38;;;;;;;10.50;1.13;;;1.80;99.90;;;;;;5024784;28;20084;-69
2023/01/20 09:07:04;;;;;;;5.28;1.02;;;1.90;99.90;;;;;;5020505;28;20044;-68
2023/01/20 09:09:30;;;;;;;4.07;0.90;;;1.90;99.90;;;;;;5026141;28;20038;-68
2023/01/20 09:11:56;;;;;;;9.70;1.70;;;1.90;99.90;;;;;;5028374;28;20073;-69
2023/01/20 09:14:24;;;;;;;9.13;1.10;;;2.00;99.90;;;;;;5025831;28;20520;-68
2023/01/20 09:16:50;;;;;;;8.60;1.23;;;1.90;99.90;;;;;;5024780;28;20033;-69
2023/01/20 09:19:16;;;;;;;6.95;1.67;;;2.00;99.90;;;;;;5022930;28;20026;-69
2023/01/20 09:21:43;;;;;;;3.25;0.70;;;2.00;99.90;;;;;;5022829;28;20035;-68
2023/01/20 09:24:09;;;;;;;2.47;0.82;;;2.00;99.90;;;;;;5021477;28;20038;-69
2023/01/20 09:26:40;;;;;;;1.88;0.88;;;2.00;99.90;;;;;;5021514;28;20033;-69
2023/01/20 09:29:14;;;;;;;7.07;1.13;;;2.10;99.90;;;;;;5021295;28;20026;-69
2023/01/20 09:31:44;;;;;;;3.00;1.05;;;2.10;99.90;;;;;;5027298;28;20092;-68
2023/01/20 09:34:17;;;;;;;3.83;0.80;;;2.20;99.90;;;;;;5020658;28;20025;-68
2023/01/20 09:36:44;;;;;;;2.88;0.75;;;2.20;99.90;;;;;;5026551;28;20026;-69
2023/01/20 09:44:49;;;;;;;5.00;0.90;;;2.40;99.90;;;;;;5024321;28;20547;-67
2023/01/20 09:47:29;;;;;;;2.67;0.70;;;2.40;99.90;;;;;;5021524;28;20030;-69
2023/01/20 09:53:24;;;;;;;4.80;1.00;;;2.50;99.90;;;;;;5020384;28;20095;-68
2023/01/20 09:55:57;;;;;;;8.23;1.33;;;2.50;99.90;;;;;;5013657;28;20156;-69
2023/01/20 09:58:43;;;;;;;2.92;0.90;;;2.60;99.90;;;;;;5021587;28;20040;-69
2023/01/20 10:01:17;;;;;;;4.95;1.48;;;2.60;99.90;;;;;;5019594;28;20089;-70
2023/01/20 10:04:02;;;;;;;3.17;1.00;;;2.70;99.90;;;;;;5026999;28;20509;-69
2023/01/20 10:06:30;;;;;;;3.53;0.90;;;2.70;99.90;;;;;;5026081;28;20393;-69
2023/01/20 10:09:21;;;;;;;2.88;1.23;;;2.80;99.90;;;;;;5024991;28;20068;-68
2023/01/20 10:11:48;;;;;;;3.90;1.13;;;2.80;99.90;;;;;;5022596;28;20053;-69
2023/01/20 10:14:18;;;;;;;5.32;1.27;;;2.90;99.90;;;;;;5020401;28;20579;-69
2023/01/20 10:16:52;;;;;;;5.05;1.70;;;2.90;99.90;;;;;;5014561;28;20129;-68
2023/01/20 10:19:28;;;;;;;11.75;4.47;;;2.90;99.90;;;;;;5026303;28;20037;-68
2023/01/20 10:22:10;;;;;;;2.85;1.20;;;2.90;99.90;;;;;;5030319;28;20039;-69
2023/01/20 10:25:05;;;;;;;4.80;1.92;;;2.90;99.90;;;;;;5025851;28;20504;-68
2023/01/20 10:27:34;;;;;;;7.00;1.63;;;2.90;99.90;;;;;;5012464;28;20034;-68
2023/01/20 10:30:20;;;;;;;2.15;1.10;;;3.00;99.90;;;;;;5025938;28;20115;-68
2023/01/20 10:33:05;;;;;;;4.05;0.80;;;3.10;99.90;;;;;;5025024;28;20033;-68
2023/01/20 10:35:48;;;;;;;5.70;1.20;;;3.10;99.90;;;;;;5017438;28;20036;-68
2023/01/20 10:38:25;;;;;;;3.60;1.13;;;3.20;99.90;;;;;;5028566;28;20374;-69
2023/01/20 10:40:57;;;;;;;5.50;1.15;;;3.30;99.90;;;;;;5032041;28;20071;-68
2023/01/20 10:43:23;;;;;;;;;;;3.40;99.90;;;;;;5019454;28;20460;-69
2023/01/20 10:46:10;;;;;;;4.70;1.40;;;3.40;99.90;;;;;;5025547;28;19917;-68
2023/01/20 10:48:57;;;;;;;5.72;1.35;;;3.50;99.90;;;;;;5027690;28;20075;-69
2023/01/20 10:51:31;;;;;;;6.25;2.38;;;3.60;99.90;;;;;;5021030;28;20034;-68
2023/01/20 10:53:57;;;;;;;5.65;1.42;;;3.70;99.90;;;;;;5025273;28;20026;-69
2023/01/20 10:56:42;;;;;;;6.72;1.23;;;3.70;99.90;;;;;;5028489;28;20025;-68
2023/01/20 10:59:33;;;;;;;3.35;0.90;;;3.80;99.90;;;;;;5023680;28;20033;-68
2023/01/20 11:02:27;;;;;;;5.63;1.05;;;3.80;99.90;;;;;;5026906;28;20088;-68
2023/01/20 11:05:01;;;;;;;3.97;1.13;;;4.00;99.90;;;;;;5025632;28;20045;-69
2023/01/20 11:07:31;;;;;;;5.60;1.23;;;4.00;99.90;;;;;;5025646;28;20029;-67
2023/01/20 11:10:12;;;;;;;6.63;1.50;;;4.10;99.90;;;;;;5023119;28;20058;-68
2023/01/20 11:12:40;;;;;;;5.72;1.30;;;4.20;99.90;;;;;;5019837;28;20073;-69
2023/01/20 11:15:20;;;;;;;6.30;1.33;;;4.20;99.90;;;;;;5030186;28;20026;-68
2023/01/20 11:17:46;;;;;;;5.07;1.15;;;4.20;99.90;;;;;;5018625;28;20395;-69
2023/01/20 11:20:20;;;;;;;6.57;1.33;;;4.30;99.90;;;;;;5030521;28;20033;-68
2023/01/20 11:22:47;;;;;;;6.07;1.55;;;4.40;99.90;;;;;;5027269;28;20022;-68
2023/01/20 11:25:25;;;;;;;5.30;1.10;;;4.40;99.90;;;;;;5025549;28;20046;-68
2023/01/20 11:27:51;;;;;;;4.90;1.42;;;4.50;99.90;;;;;;5029845;28;20041;-68
2023/01/20 11:30:28;;;;;;;5.25;1.10;;;4.50;99.90;;;;;;5027586;28;20458;-68
2023/01/20 11:33:12;;;;;;;6.18;1.25;;;4.70;99.90;;;;;;5030154;28;20030;-68
2023/01/20 11:35:38;;;;;;;6.20;1.25;;;5.30;99.90;;;;;;5012890;28;20073;-69
2023/01/20 11:38:23;;;;;;;7.93;1.63;;;5.80;99.90;;;;;;5029309;28;20029;-69
2023/01/20 11:40:55;;;;;;;6.20;1.38;;;6.40;99.90;;;;;;5018521;28;20033;-70
2023/01/20 11:43:34;;;;;;;3.03;1.15;;;6.70;99.90;;;;;;5021798;28;20053;-69
2023/01/20 11:46:19;;;;;;;4.82;1.60;;;7.00;99.90;;;;;;5027619;28;21472;-69
2023/01/20 11:48:45;;;;;;;3.47;1.30;;;7.30;99.90;;;;;;5026784;28;20022;-72
2023/01/20 11:51:29;;;;;;;7.53;1.70;;;7.50;99.90;;;;;;5027515;28;20467;-69
2023/01/20 11:54:19;;;;;;;6.18;1.80;;;7.80;99.90;;;;;;5030315;28;20032;-69
2023/01/20 11:56:48;;;;;;;3.13;1.15;;;8.00;99.90;;;;;;5021526;28;20026;-68
2023/01/20 11:59:26;;;;;;;5.55;1.13;;;8.30;99.90;;;;;;5027654;28;20029;-69
2023/01/20 12:02:00;;;;;;;7.15;1.35;;;8.30;99.90;;;;;;5026835;28;20029;-69
2023/01/20 12:04:36;;;;;;;5.75;1.90;;;8.20;99.90;;;;;;5025279;28;20037;-69
2023/01/20 12:07:08;;;;;;;6.40;1.30;;;8.30;99.90;;;;;;5021601;28;20387;-69
2023/01/20 12:09:37;;;;;;;5.38;1.17;;;8.20;99.90;;;;;;5023342;28;20546;-70
2023/01/20 12:12:19;;;;;;;3.58;0.95;;;8.30;99.90;;;;;;5025139;28;20044;-69
2023/01/20 12:14:51;;;;;;;7.97;1.25;;;8.70;99.90;;;;;;5024470;28;20032;-71
2023/01/20 12:17:26;;;;;;;4.35;0.80;;;8.70;99.90;;;;;;5018299;28;20472;-65
2023/01/20 12:20:13;;;;;;;8.32;1.30;;;8.80;99.90;;;;;;5023903;28;20106;-69
2023/01/20 12:22:45;;;;;;;4.65;1.10;;;8.70;99.90;;;;;;5021614;28;20022;-69
2023/01/20 12:25:16;;;;;;;5.13;1.23;;;8.70;99.90;;;;;;5028290;28;20123;-69
2023/01/20 12:27:48;;;;;;;3.78;0.98;;;9.00;99.90;;;;;;5024320;28;20048;-68
2023/01/20 12:30:52;;;;;;;6.55;1.05;;;9.10;99.90;;;;;;5025238;28;20037;-68
2023/01/20 12:33:28;;;;;;;4.60;1.33;;;9.40;99.90;;;;;;5013794;28;20414;-68
2023/01/20 12:36:00;;;;;;;7.05;0.93;;;9.60;99.90;;;;;;5028077;28;20025;-69
2023/01/20 12:38:32;;;;;;;4.80;1.45;;;9.90;99.90;;;;;;5021181;28;20038;-67
2023/01/20 12:41:05;;;;;;;2.17;1.08;;;10.20;99.90;;;;;;5023189;28;20033;-69
2023/01/20 12:43:59;;;;;;;2.55;1.10;;;10.50;99.90;;;;;;5022674;28;20056;-69
2023/01/20 12:46:50;;;;;;;5.32;1.58;;;10.50;99.90;;;;;;5022905;28;20038;-70
2023/01/20 12:49:36;;;;;;;8.90;1.60;;;10.80;99.90;;;;;;5024933;28;20022;-69
2023/01/20 12:52:14;;;;;;;8.25;1.50;;;10.10;99.90;;;;;;5021937;28;20059;-69
2023/01/20 12:55:07;;;;;;;9.05;1.38;;;9.70;99.90;;;;;;5025903;28;20095;-70
2023/01/20 12:57:59;;;;;;;6.53;1.55;;;9.30;99.90;;;;;;5019683;28;20040;-69
2023/01/20 13:00:28;;;;;;;2.72;1.10;;;8.50;99.90;;;;;;5007945;28;20087;-69
2023/01/20 13:03:05;;;;;;;10.18;1.50;;;8.60;99.90;;;;;;5025564;28;20045;-70
2023/01/20 13:05:37;;;;;;;15.43;1.80;;;9.00;99.90;;;;;;5022945;28;20044;-69
2023/01/20 13:08:23;;;;;;;28.13;2.30;;;9.70;99.90;;;;;;5027663;28;20037;-69
2023/01/20 13:11:03;;;;;;;23.77;3.15;;;10.20;99.90;;;;;;5023232;28;20116;-71
2023/01/20 13:13:49;;;;;;;13.52;2.42;;;10.00;99.90;;;;;;5021036;28;20037;-69
2023/01/20 13:16:35;;;;;;;6.50;1.25;;;10.00;99.90;;;;;;5022913;28;20075;-69
2023/01/20 13:19:10;;;;;;;9.23;1.40;;;10.10;99.90;;;;;;5024393;28;20029;-70
2023/01/20 13:21:36;;;;;;;5.78;1.45;;;10.00;99.90;;;;;;5013679;28;20508;-69
2023/01/20 13:24:05;;;;;;;27.13;2.90;;;10.20;99.90;;;;;;5022947;28;20033;-70
2023/01/20 13:26:32;;;;;;;5.07;1.65;;;10.20;99.90;;;;;;5021787;28;20022;-69